TAF Text Data
IDs:
Format:
Raw Decoded Include METAR

Data at: 2016 UTC 18 Jul 2019

KRST 181731Z 1818/1918 20008KT P6SM BKN015
  FM182000 22008KT P6SM SCT025
  FM190100 22008KT P6SM VCTS BKN035CB
  TEMPO 1901/1905 4SM TSRA BKN030CB
  FM190800 22005KT P6SM SCT035 BKN060